digia.com alexa rank chart, digia.com alexa rank daily changes

digia.com alexa rank chart, digia.com alexa rank daily changes

digia.com
Actual rank:
392 487

RANK HISTORY

Date Rank Diff
2018/02/20 392 487 +136 051
2018/02/18 256 436 -111 870
2018/02/17 368 306 -167 921
2018/02/16 536 227 -259 802
2018/02/15 796 029 +201 924
2018/02/11 594 105 +136 254
2018/02/10 457 851 -59 253
2018/02/08 517 104 +40 206
2018/02/07 476 898 +39 916
2018/02/04 436 982 -509 860
2018/02/03 946 842 +723 011
2018/02/02 223 831 -11 552
2018/02/01 235 383 -83 269
2018/01/31 318 652 -138 221
2018/01/30 456 873 -163
2018/01/29 457 036 -15 936
2018/01/28 472 972 +602
2018/01/27 472 370 +2 324
2018/01/26 470 046 -24 800
2018/01/25 494 846 +3 095
2018/01/24 491 751 -12 665
2018/01/23 504 416 -5 483
2018/01/22 509 899 -15 931
2018/01/21 525 830 -3 446
2018/01/20 529 276 +93
2018/01/19 529 183 -19 316
2018/01/18 548 499 +2 595
2018/01/17 545 904 -17 374
2018/01/16 563 278 -5 514
2018/01/15 568 792 +39 973
2018/01/14 528 819 +19 098
2018/01/13 509 721 -23 367
2018/01/12 533 088 -13 970
2018/01/11 547 058 -25 202
2018/01/10 572 260 -41 720
2018/01/09 613 980 -35 498
2018/01/08 649 478 -52 399
2018/01/07 701 877 +15 479
2018/01/06 686 398 -38 605
2018/01/05 725 003 -36 231
2018/01/04 761 234

WIDGET FOR YOUR SITE

DOMAINS WITH THE NEAREST RANK

Domain Rank
cornia.fi 392 482
crazyrewards.com 392 483
criticalcapture.livejournal.com 392 484
dermosil.fi 392 485
dhl.fi 392 486
digia.com 392 487
direct123.fi 392 488
doma24.ee 392 489
dustin.fi 392 490
elle.fi 392 491
ellivuori.fi 392 492

DOMAINS WITH THE NEAREST RANK BY TLD .com

Domain Rank
astiavuokraus.com 392 468
carsoftsales.com 392 477
chartco.com 392 478
cocomms.com 392 481
crazyrewards.com 392 483
digia.com 392 487
emiliahuttunen.com 392 493
finink.com 392 502
german-kinetics.com 392 509
globusbooks.com 392 510
gofore.com 392 511